• Join FlightAware (Why Join?)
  • Login
  • US Flag 
03:02AM EDT


 

Airport Tracker/Info


-or-


 

Live Flight TrackerFlight Track Log ✈ LJY630 ✈ 04-Jan-2014 ✈ KAPF - KPIT

Flight Track Log - Related Links

Times and Time Zones

All times are in EST time to prevent confusion due to time zone crossing. See the LJY630 flight status page for this flight to view local times or setup timezone preferences in your user account.

Time Position Orientation Groundspeed Altitude Reporting Facility
EST Latitude Longitude Course Direction KTS MPH feet Rate Location/Type
01:37PM 26.2858 -81.7153 344° North 283 326 7,600  Level Miami Center
01:38PM 26.3672 -81.7186 358° North 297 342 9,700 1,740 Climbing Miami Center
01:39PM 26.4483 -81.7219 358° North 310 357 11,100 2,340 Climbing Miami Center
01:40PM 26.5464 -81.7283 357° North 317 365 14,400 3,120 Climbing Miami Center
01:41PM 26.9019 -81.7062 344° North  Level Estimated
01:41PM 26.6400 -81.7322 358° North 322 371 17,400  Level Miami Center
01:42PM 26.7297 -81.7361 358° North 328 377 20,100 2,460 Climbing Miami Center
01:43PM 26.8236 -81.7400 358° North 328 377 22,400 1,440 Climbing Miami Center
01:44PM 26.9217 -81.7417 359° North 335 386 23,000 360 Climbing Miami Center
01:45PM 27.0425 -81.7514 356° North 375 432 23,200 1,020 Climbing Miami Center
01:46PM 27.1436 -81.7836 344° North 417 480 25,100 1,860 Climbing Miami Center
01:47PM 27.2550 -81.8211 343° North 422 486 27,000 1,800 Climbing Miami Center
01:48PM 27.3767 -81.8639 343° North 417 480 28,700 1,500 Climbing Miami Center
01:49PM 27.4900 -81.9039 343° North 417 480 30,100 1,500 Climbing Miami Center
01:50PM 27.6033 -81.9439 343° North 422 486 31,700 4,440 Climbing Miami Center
01:51PM 27.7089 -81.9697 348° North 422 486 39,000 1,800 Climbing Miami Center
01:52PM 27.8308 -81.9447 10° North 427 491 35,300 -1,200 Descending Miami Center
01:53PM 27.9356 -81.8719 32° Northeast 422 486 36,700 1,260 Climbing Miami Center
01:54PM 28.0411 -81.7800 38° Northeast 426 490 37,900 1,080 Climbing Miami Center
01:55PM 28.1358 -81.6947 38° Northeast 431 496 38,900 540 Climbing Miami Center
01:56PM 28.2389 -81.6050 37° Northeast 448 516 39,000  Climbing Miami Center
01:57PM 28.3525 -81.5131 35° Northeast 475 547 39,000  Level Miami Center
01:57PM 28.4656 -81.4781 15° North 498 573 39,000  Level Jacksonville Center
01:58PM 28.6033 -81.4833 358° North 498 573 39,000  Level Jacksonville Center
01:59PM 28.7494 -81.4836 360° North 498 573 39,000  Level Jacksonville Center
02:00PM 28.8894 -81.4886 358° North 503 579 39,000  Level Jacksonville Center
02:01PM 29.0272 -81.4917 359° North 498 573 39,100 300 Climbing Jacksonville Center
02:02PM 29.1669 -81.4919 360° North 498 573 39,600 480 Climbing Jacksonville Center
02:03PM 29.3111 -81.4969 358° North 487 560 40,100 480 Climbing Jacksonville Center
02:04PM 29.4447 -81.4975 360° North 476 548 40,600 420 Climbing Jacksonville Center
02:05PM 29.5761 -81.5003 359° North 476 548 41,000 180 Climbing Jacksonville Center
02:06PM 29.7097 -81.4986 North 476 548 41,000  Level Jacksonville Center
02:07PM 29.8414 -81.5039 358° North 476 548 41,000  Level Jacksonville Center
02:08PM 29.9731 -81.5067 359° North 476 548 41,000  Level Jacksonville Center
02:09PM 30.0942 -81.5072 360° North 476 548 41,000  Level Jacksonville Center
02:10PM 30.2256 -81.5078 360° North 476 548 41,000  Level Jacksonville Center
02:11PM 30.3633 -81.5058 North 476 548 41,000  Level Jacksonville Center
02:12PM 30.4969 -81.4967 North 476 548 41,000 -60 Level Jacksonville Center
02:13PM 30.6347 -81.4875 North 476 548 40,900  Descending Jacksonville Center
02:14PM 30.7681 -81.4686 North 476 548 41,000  Climbing Jacksonville Center
02:15PM 30.9056 -81.4519 North 482 555 41,000  Level Jacksonville Center
02:16PM 31.0411 -81.4353 North 482 555 41,000  Level Jacksonville Center
02:17PM 31.1767 -81.4161 North 482 555 41,000  Level Jacksonville Center
02:18PM 31.3122 -81.3994 North 482 555 41,000  Level Jacksonville Center
02:19PM 31.4581 -81.3778 North 481 554 41,000  Level Jacksonville Center
02:20PM 31.5936 -81.3608 North 481 554 41,000  Level Jacksonville Center
02:21PM 31.7144 -81.3467 North 481 554 41,000  Level Jacksonville Center
02:22PM 31.8644 -81.3244 North 481 554 41,000  Level Jacksonville Center
02:23PM 32.0022 -81.3075 North 481 554 41,000  Level Jacksonville Center
02:24PM 32.1333 -81.2906 North 481 554 41,000  Level Jacksonville Center
02:25PM 32.2689 -81.2708 North 481 554 41,000  Level Jacksonville Center
02:26PM 32.4044 -81.2539 North 481 554 41,000  Level Jacksonville Center
02:27PM 32.5397 -81.2367 North 481 554 41,000  Level Jacksonville Center
02:28PM 32.6733 -81.2194 North 486 559 41,000  Level Jacksonville Center
02:29PM 32.8086 -81.1994 North 486 559 41,000  Level Jacksonville Center
02:30PM 32.9442 -81.1822 North 481 554 41,000  Level Jacksonville Center
02:31PM 33.0775 -81.1647 North 481 554 41,000  Level Jacksonville Center
02:32PM 33.2108 -81.1447 North 481 554 41,000  Level Jacksonville Center
02:33PM 33.3461 -81.1272 North 481 554 41,000  Level Jacksonville Center
02:34PM 33.4817 -81.1069 North 481 554 41,000  Level Jacksonville Center
02:35PM 33.6169 -81.0919 North 481 554 41,000  Level Jacksonville Center
02:36PM 33.7503 -81.0717 North 481 554 41,000  Level Jacksonville Center
02:37PM 33.8711 -81.0542 North 476 548 41,000  Level Jacksonville Center
02:38PM 34.0144 -81.0261 North 484 557 41,000  Level Jacksonville Center
02:40PM 34.2322 -80.9886 North 487 560 41,000  Level Atlanta Center
02:41PM 34.3631 -80.9639 North 482 555 41,000  Level Atlanta Center
02:42PM 34.4961 -80.9411 North 482 555 41,000  Level Atlanta Center
02:43PM 34.6269 -80.9211 North 482 555 41,000  Level Atlanta Center
02:44PM 34.7619 -80.8961 North 482 555 41,000  Level Atlanta Center
02:45PM 34.8950 -80.8708 North 482 555 41,000  Level Atlanta Center
02:46PM 35.0258 -80.8456 North 482 555 41,000  Level Atlanta Center
02:47PM 35.1567 -80.8200 North 482 555 41,000  Level Atlanta Center
02:48PM 35.2875 -80.7972 North 475 547 41,000  Level Atlanta Center
02:49PM 35.4161 -80.7717 North 475 547 41,000  Level Atlanta Center
02:50PM 35.5489 -80.7486 North 475 547 41,000  Level Atlanta Center
02:51PM 35.6778 -80.7256 North 475 547 41,000 -240 Level Atlanta Center
02:52PM 35.7956 -80.6900 14° North 475 547 40,600 -480 Descending Atlanta Center
02:53PM 35.9261 -80.6514 13° North 481 554 40,100 -540 Descending Atlanta Center
02:54PM 36.0564 -80.6150 13° North 481 554 39,600 -540 Descending Atlanta Center
02:55PM 36.1825 -80.5761 14° North 481 554 39,100 -600 Descending Atlanta Center
02:56PM 36.3253 -80.5339 13° North 481 554 38,500 -600 Descending Atlanta Center
02:57PM 36.4575 -80.4922 14° North 481 554 38,000 -480 Descending Atlanta Center
02:59PM 36.7667 -80.3992 14° North 479 551 36,900 -480 Descending Washington Center
03:00PM 36.9019 -80.3581 14° North 484 557 36,400 -600 Descending Washington Center
03:01PM 37.0436 -80.3147 14° North 478 550 35,800 -600 Descending Washington Center
03:02PM 37.1744 -80.2733 14° North 478 550 35,300 -540 Descending Washington Center
03:03PM 37.3033 -80.2342 14° North 478 550 34,800 -540 Descending Washington Center
03:04PM 37.4361 -80.1953 13° North 478 550 34,300 -540 Descending Washington Center
03:05PM 37.5672 -80.1536 14° North 478 550 33,800 -540 Descending Washington Center
03:06PM 37.6939 -80.1111 15° North 478 550 33,300 -540 Descending Washington Center
03:07PM 37.8100 -80.0761 13° North 478 550 32,800 -660 Descending Washington Center
03:08PM 37.9367 -80.0336 15° North 478 550 32,000 -1,620 Descending Washington Center
03:09PM 38.0653 -79.9939 14° North 478 550 29,600 -2,460 Descending Washington Center
03:10PM 38.1900 -79.9536 14° North 471 542 27,200 -2,340 Descending Washington Center
03:11PM 38.3186 -79.9136 14° North 471 542 24,900 -1,620 Descending Washington Center
03:12PM 38.4558 -79.8683 14° North 466 536 24,000 -540 Descending Washington Center
03:13PM 38.5781 -79.8278 15° North 460 529 23,900 -360 Descending Washington Center
03:14PM 38.7006 -79.7869 15° North 460 529 23,400 -540 Descending Washington Center
03:16PM 38.9042 -79.7317 12° North 435 501 22,500 -540 Descending Cleveland Center
03:17PM 39.0244 -79.7278 North 432 497 22,000 -540 Descending Cleveland Center
03:18PM 39.1433 -79.7264 North 429 494 21,500 -540 Descending Cleveland Center
03:19PM 39.2592 -79.7272 360° North 421 484 21,000 -540 Descending Cleveland Center
03:20PM 39.3989 -79.7236 North 417 480 20,400 -1,020 Descending Cleveland Center
03:21PM 39.5150 -79.7214 North 417 480 19,000 -1,620 Descending Cleveland Center
03:22PM 39.6264 -79.7192 North 402 463 17,200 -1,500 Descending Cleveland Center
03:23PM 39.7367 -79.7206 359° North 399 459 16,000 -1,260 Descending Cleveland Center
03:24PM 39.8467 -79.7186 North 397 457 14,600 -1,440 Descending Cleveland Center
03:25PM 39.9569 -79.7178 360° North 398 458 13,100 -1,560 Descending Cleveland Center
03:26PM 40.0606 -79.7281 356° North 379 436 11,500 -1,620 Descending Cleveland Center
03:28PM 40.1528 -79.7969 330° Northwest 311 358 9,800 -1,620 Descending Cleveland Center
03:29PM 40.2061 -79.8633 316° Northwest 269 310 8,200 -1,560 Descending Cleveland Center
03:30PM 40.2569 -79.9269 316° Northwest 254 292 6,700 -1,500 Descending Cleveland Center
03:31PM 40.3072 -79.9864 318° Northwest 247 284 5,200 -1,260 Descending Cleveland Center
03:32PM 40.3525 -80.0447 316° Northwest 236 272 4,100 -780 Descending Cleveland Center
03:33PM 40.3944 -80.0967 317° Northwest 220 253 3,600 -900 Descending Cleveland Center
03:34PM 40.4344 -80.1492 315° West 192 221 2,300 -1,080 Descending Cleveland Center
03:35PM 40.4664 -80.1875 318° Northwest 175 201 1,500 -780 Descending Cleveland Center
03:37PM 40.4833 -80.2167 270° West  Level FlightAware Approximate